sensor_id;sensor_type;location;lat;lon;timestamp;temperature;humidity
51733;DHT22;39139;53.144;6.244;2023-10-19T00:01:22;8.10;99.90
51733;DHT22;39139;53.144;6.244;2023-10-19T00:03:52;8.10;99.90
51733;DHT22;39139;53.144;6.244;2023-10-19T00:06:21;8.10;99.90
51733;DHT22;39139;53.144;6.244;2023-10-19T00:08:48;8.10;99.90
51733;DHT22;39139;53.144;6.244;2023-10-19T00:11:16;8.10;99.90
51733;DHT22;39139;53.144;6.244;2023-10-19T00:13:49;8.10;99.90
51733;DHT22;39139;53.144;6.244;2023-10-19T00:16:20;8.10;99.90
51733;DHT22;39139;53.144;6.244;2023-10-19T00:18:49;8.10;99.90
51733;DHT22;39139;53.144;6.244;2023-10-19T00:21:16;8.10;99.90
51733;DHT22;39139;53.144;6.244;2023-10-19T00:23:45;8.10;99.90
51733;DHT22;39139;53.144;6.244;2023-10-19T00:26:13;8.10;99.90
51733;DHT22;39139;53.144;6.244;2023-10-19T00:28:57;8.10;99.90
51733;DHT22;39139;53.144;6.244;2023-10-19T00:31:26;8.10;99.90
51733;DHT22;39139;53.144;6.244;2023-10-19T00:33:59;8.10;99.90
51733;DHT22;39139;53.144;6.244;2023-10-19T00:36:26;8.10;99.90
51733;DHT22;39139;53.144;6.244;2023-10-19T00:38:52;8.10;99.90
51733;DHT22;39139;53.144;6.244;2023-10-19T00:41:26;8.10;99.90
51733;DHT22;39139;53.144;6.244;2023-10-19T00:43:55;9.00;99.90
51733;DHT22;39139;53.144;6.244;2023-10-19T00:46:28;8.00;99.90
51733;DHT22;39139;53.144;6.244;2023-10-19T00:49:04;8.20;99.90
51733;DHT22;39139;53.144;6.244;2023-10-19T00:51:43;6.90;99.90
51733;DHT22;39139;53.144;6.244;2023-10-19T00:54:25;8.00;99.90
51733;DHT22;39139;53.144;6.244;2023-10-19T00:56:57;8.00;99.90
51733;DHT22;39139;53.144;6.244;2023-10-19T00:59:26;8.10;99.90
51733;DHT22;39139;53.144;6.244;2023-10-19T01:01:56;8.00;99.90
51733;DHT22;39139;53.144;6.244;2023-10-19T01:04:40;8.00;99.90
51733;DHT22;39139;53.144;6.244;2023-10-19T01:07:09;8.10;99.90
51733;DHT22;39139;53.144;6.244;2023-10-19T01:09:42;8.00;99.90
51733;DHT22;39139;53.144;6.244;2023-10-19T01:12:09;8.00;99.90
51733;DHT22;39139;53.144;6.244;2023-10-19T01:15:24;8.00;99.90
51733;DHT22;39139;53.144;6.244;2023-10-19T01:17:56;8.00;99.90
51733;DHT22;39139;53.144;6.244;2023-10-19T01:20:27;8.00;99.90
51733;DHT22;39139;53.144;6.244;2023-10-19T01:23:00;8.00;99.90
51733;DHT22;39139;53.144;6.244;2023-10-19T01:28:24;8.00;99.90
51733;DHT22;39139;53.144;6.244;2023-10-19T01:31:15;8.00;99.90
51733;DHT22;39139;53.144;6.244;2023-10-19T01:33:54;8.00;99.90
51733;DHT22;39139;53.144;6.244;2023-10-19T01:36:23;8.00;99.90
51733;DHT22;39139;53.144;6.244;2023-10-19T01:38:50;8.00;99.90
51733;DHT22;39139;53.144;6.244;2023-10-19T01:41:19;8.10;99.90
51733;DHT22;39139;53.144;6.244;2023-10-19T01:43:47;8.10;99.90
51733;DHT22;39139;53.144;6.244;2023-10-19T01:46:15;8.00;99.90
51733;DHT22;39139;53.144;6.244;2023-10-19T01:48:50;8.00;99.90
51733;DHT22;39139;53.144;6.244;2023-10-19T01:51:20;8.00;99.90
51733;DHT22;39139;53.144;6.244;2023-10-19T01:53:47;8.00;99.90
51733;DHT22;39139;53.144;6.244;2023-10-19T01:56:14;8.00;99.90
51733;DHT22;39139;53.144;6.244;2023-10-19T01:58:41;8.40;99.90
51733;DHT22;39139;53.144;6.244;2023-10-19T02:01:08;8.10;99.90
51733;DHT22;39139;53.144;6.244;2023-10-19T02:04:04;8.00;99.90
51733;DHT22;39139;53.144;6.244;2023-10-19T02:06:32;8.00;99.90
51733;DHT22;39139;53.144;6.244;2023-10-19T02:09:08;8.10;99.90
51733;DHT22;39139;53.144;6.244;2023-10-19T02:11:45;8.10;99.90
51733;DHT22;39139;53.144;6.244;2023-10-19T02:14:12;8.10;99.90
51733;DHT22;39139;53.144;6.244;2023-10-19T02:16:42;8.10;99.90
51733;DHT22;39139;53.144;6.244;2023-10-19T02:19:09;8.10;99.90
51733;DHT22;39139;53.144;6.244;2023-10-19T02:21:35;8.10;99.90
51733;DHT22;39139;53.144;6.244;2023-10-19T02:24:10;8.10;99.90
51733;DHT22;39139;53.144;6.244;2023-10-19T02:26:40;8.10;99.90
51733;DHT22;39139;53.144;6.244;2023-10-19T02:29:06;8.10;99.90
51733;DHT22;39139;53.144;6.244;2023-10-19T02:31:40;8.10;99.90
51733;DHT22;39139;53.144;6.244;2023-10-19T02:34:10;8.00;99.90
51733;DHT22;39139;53.144;6.244;2023-10-19T02:36:37;8.30;99.90
51733;DHT22;39139;53.144;6.244;2023-10-19T02:39:05;8.10;99.90
51733;DHT22;39139;53.144;6.244;2023-10-19T02:41:38;8.10;99.90
51733;DHT22;39139;53.144;6.244;2023-10-19T02:44:08;8.10;99.90
51733;DHT22;39139;53.144;6.244;2023-10-19T02:49:12;8.10;99.90
51733;DHT22;39139;53.144;6.244;2023-10-19T02:51:42;8.10;99.90
51733;DHT22;39139;53.144;6.244;2023-10-19T02:54:12;8.20;99.90
51733;DHT22;39139;53.144;6.244;2023-10-19T02:56:54;8.10;99.90
51733;DHT22;39139;53.144;6.244;2023-10-19T02:59:23;8.20;99.90
51733;DHT22;39139;53.144;6.244;2023-10-19T03:01:50;8.10;99.90
51733;DHT22;39139;53.144;6.244;2023-10-19T03:04:17;8.20;99.90
51733;DHT22;39139;53.144;6.244;2023-10-19T03:06:43;8.20;99.90
51733;DHT22;39139;53.144;6.244;2023-10-19T03:09:09;8.10;99.90
51733;DHT22;39139;53.144;6.244;2023-10-19T03:11:48;8.20;99.90
51733;DHT22;39139;53.144;6.244;2023-10-19T03:14:18;8.10;99.90
51733;DHT22;39139;53.144;6.244;2023-10-19T03:16:44;8.10;99.90
51733;DHT22;39139;53.144;6.244;2023-10-19T03:19:11;8.20;99.90
51733;DHT22;39139;53.144;6.244;2023-10-19T03:21:38;8.20;99.90
51733;DHT22;39139;53.144;6.244;2023-10-19T03:24:08;8.20;99.90
51733;DHT22;39139;53.144;6.244;2023-10-19T03:26:49;8.20;99.90
51733;DHT22;39139;53.144;6.244;2023-10-19T03:29:17;8.20;99.90
51733;DHT22;39139;53.144;6.244;2023-10-19T03:31:58;8.20;99.90
51733;DHT22;39139;53.144;6.244;2023-10-19T03:34:27;8.20;99.90
51733;DHT22;39139;53.144;6.244;2023-10-19T03:36:52;8.50;99.90
51733;DHT22;39139;53.144;6.244;2023-10-19T03:39:19;8.20;99.90
51733;DHT22;39139;53.144;6.244;2023-10-19T03:41:46;8.50;99.90
51733;DHT22;39139;53.144;6.244;2023-10-19T03:44:12;8.20;99.90
51733;DHT22;39139;53.144;6.244;2023-10-19T03:46:53;8.30;99.90
51733;DHT22;39139;53.144;6.244;2023-10-19T03:49:23;8.30;99.90
51733;DHT22;39139;53.144;6.244;2023-10-19T03:52:07;8.20;99.90
51733;DHT22;39139;53.144;6.244;2023-10-19T03:54:39;8.30;99.90
51733;DHT22;39139;53.144;6.244;2023-10-19T03:57:12;8.30;99.90
51733;DHT22;39139;53.144;6.244;2023-10-19T03:59:38;8.30;99.90
51733;DHT22;39139;53.144;6.244;2023-10-19T04:02:04;8.40;99.90
51733;DHT22;39139;53.144;6.244;2023-10-19T04:04:36;8.30;99.90
51733;DHT22;39139;53.144;6.244;2023-10-19T04:07:02;8.30;99.90
51733;DHT22;39139;53.144;6.244;2023-10-19T04:09:39;8.30;99.90
51733;DHT22;39139;53.144;6.244;2023-10-19T04:12:23;8.30;99.90
51733;DHT22;39139;53.144;6.244;2023-10-19T04:14:49;8.40;99.90
51733;DHT22;39139;53.144;6.244;2023-10-19T04:17:15;7.30;99.90
51733;DHT22;39139;53.144;6.244;2023-10-19T04:19:42;8.30;99.90
51733;DHT22;39139;53.144;6.244;2023-10-19T04:22:09;8.40;99.90
51733;DHT22;39139;53.144;6.244;2023-10-19T04:24:47;8.30;99.90
51733;DHT22;39139;53.144;6.244;2023-10-19T04:27:13;8.40;99.90
51733;DHT22;39139;53.144;6.244;2023-10-19T04:29:38;8.40;99.90
51733;DHT22;39139;53.144;6.244;2023-10-19T04:32:06;8.40;99.90
51733;DHT22;39139;53.144;6.244;2023-10-19T04:34:32;8.40;99.90
51733;DHT22;39139;53.144;6.244;2023-10-19T04:36:58;8.40;99.90
51733;DHT22;39139;53.144;6.244;2023-10-19T04:39:23;8.40;99.90
51733;DHT22;39139;53.144;6.244;2023-10-19T04:41:50;8.40;99.90
51733;DHT22;39139;53.144;6.244;2023-10-19T04:44:15;8.40;99.90
51733;DHT22;39139;53.144;6.244;2023-10-19T04:46:41;8.40;99.90
51733;DHT22;39139;53.144;6.244;2023-10-19T04:49:07;8.40;99.90
51733;DHT22;39139;53.144;6.244;2023-10-19T04:51:34;8.40;99.90
51733;DHT22;39139;53.144;6.244;2023-10-19T04:54:04;8.40;99.90
51733;DHT22;39139;53.144;6.244;2023-10-19T04:56:30;8.40;99.90
51733;DHT22;39139;53.144;6.244;2023-10-19T04:58:56;8.40;99.90
51733;DHT22;39139;53.144;6.244;2023-10-19T05:01:22;8.40;99.90
51733;DHT22;39139;53.144;6.244;2023-10-19T05:03:47;8.40;99.90
51733;DHT22;39139;53.144;6.244;2023-10-19T05:06:13;8.60;99.90
51733;DHT22;39139;53.144;6.244;2023-10-19T05:08:39;8.50;99.90
51733;DHT22;39139;53.144;6.244;2023-10-19T05:11:05;8.40;99.90
51733;DHT22;39139;53.144;6.244;2023-10-19T05:13:31;8.80;99.90
51733;DHT22;39139;53.144;6.244;2023-10-19T05:15:58;8.50;99.90
51733;DHT22;39139;53.144;6.244;2023-10-19T05:18:25;8.50;99.90
51733;DHT22;39139;53.144;6.244;2023-10-19T05:20:52;8.50;99.90
51733;DHT22;39139;53.144;6.244;2023-10-19T05:23:22;8.50;99.90
51733;DHT22;39139;53.144;6.244;2023-10-19T05:25:49;8.50;99.90
51733;DHT22;39139;53.144;6.244;2023-10-19T05:28:15;8.50;99.90
51733;DHT22;39139;53.144;6.244;2023-10-19T05:30:41;8.50;99.90
51733;DHT22;39139;53.144;6.244;2023-10-19T05:33:06;8.50;99.90
51733;DHT22;39139;53.144;6.244;2023-10-19T05:35:32;8.60;99.90
51733;DHT22;39139;53.144;6.244;2023-10-19T05:38:02;8.60;99.90
51733;DHT22;39139;53.144;6.244;2023-10-19T05:40:28;8.50;99.90
51733;DHT22;39139;53.144;6.244;2023-10-19T05:42:59;8.50;99.90
51733;DHT22;39139;53.144;6.244;2023-10-19T05:45:27;8.60;99.90
51733;DHT22;39139;53.144;6.244;2023-10-19T05:47:55;8.60;99.90
51733;DHT22;39139;53.144;6.244;2023-10-19T05:50:21;8.60;99.90
51733;DHT22;39139;53.144;6.244;2023-10-19T05:52:46;8.50;99.90
51733;DHT22;39139;53.144;6.244;2023-10-19T05:55:14;8.60;99.90
51733;DHT22;39139;53.144;6.244;2023-10-19T05:57:40;8.60;99.90
51733;DHT22;39139;53.144;6.244;2023-10-19T06:00:08;8.50;99.90
51733;DHT22;39139;53.144;6.244;2023-10-19T06:02:44;8.50;99.90
51733;DHT22;39139;53.144;6.244;2023-10-19T06:05:11;8.60;99.90
51733;DHT22;39139;53.144;6.244;2023-10-19T06:07:36;8.60;99.90
51733;DHT22;39139;53.144;6.244;2023-10-19T06:10:03;8.60;99.90
51733;DHT22;39139;53.144;6.244;2023-10-19T06:12:33;7.50;99.90
51733;DHT22;39139;53.144;6.244;2023-10-19T06:15:00;8.60;99.90
51733;DHT22;39139;53.144;6.244;2023-10-19T06:17:26;8.70;99.90
51733;DHT22;39139;53.144;6.244;2023-10-19T06:19:53;8.60;99.90
51733;DHT22;39139;53.144;6.244;2023-10-19T06:22:19;8.60;99.90
51733;DHT22;39139;53.144;6.244;2023-10-19T06:24:45;8.70;99.90
51733;DHT22;39139;53.144;6.244;2023-10-19T06:27:10;8.70;99.90
51733;DHT22;39139;53.144;6.244;2023-10-19T06:29:36;8.60;99.90
51733;DHT22;39139;53.144;6.244;2023-10-19T06:32:02;8.70;99.90
51733;DHT22;39139;53.144;6.244;2023-10-19T06:34:28;8.70;99.90
51733;DHT22;39139;53.144;6.244;2023-10-19T06:36:54;8.60;99.90
51733;DHT22;39139;53.144;6.244;2023-10-19T06:39:20;8.90;99.90
51733;DHT22;39139;53.144;6.244;2023-10-19T06:41:47;8.60;99.90
51733;DHT22;39139;53.144;6.244;2023-10-19T06:44:13;8.70;99.90
51733;DHT22;39139;53.144;6.244;2023-10-19T06:46:39;8.70;99.90
51733;DHT22;39139;53.144;6.244;2023-10-19T06:49:05;8.60;99.90
51733;DHT22;39139;53.144;6.244;2023-10-19T06:51:31;8.70;99.90
51733;DHT22;39139;53.144;6.244;2023-10-19T06:53:58;8.70;99.90
51733;DHT22;39139;53.144;6.244;2023-10-19T06:56:24;8.70;99.90
51733;DHT22;39139;53.144;6.244;2023-10-19T06:58:50;8.70;99.90
51733;DHT22;39139;53.144;6.244;2023-10-19T07:01:16;8.70;99.90
51733;DHT22;39139;53.144;6.244;2023-10-19T07:03:43;8.70;99.90
51733;DHT22;39139;53.144;6.244;2023-10-19T07:06:09;8.70;99.90
51733;DHT22;39139;53.144;6.244;2023-10-19T07:08:39;8.70;99.90
51733;DHT22;39139;53.144;6.244;2023-10-19T07:11:06;8.70;99.90
51733;DHT22;39139;53.144;6.244;2023-10-19T07:13:33;8.90;99.90
51733;DHT22;39139;53.144;6.244;2023-10-19T07:15:59;8.70;99.90
51733;DHT22;39139;53.144;6.244;2023-10-19T07:18:25;8.70;99.90
51733;DHT22;39139;53.144;6.244;2023-10-19T07:20:52;8.70;99.90
51733;DHT22;39139;53.144;6.244;2023-10-19T07:23:19;8.70;99.90
51733;DHT22;39139;53.144;6.244;2023-10-19T07:25:48;8.80;99.90
51733;DHT22;39139;53.144;6.244;2023-10-19T07:28:18;8.70;99.90
51733;DHT22;39139;53.144;6.244;2023-10-19T07:30:45;8.70;99.90
51733;DHT22;39139;53.144;6.244;2023-10-19T07:33:12;8.70;99.90
51733;DHT22;39139;53.144;6.244;2023-10-19T07:35:46;8.80;99.90
51733;DHT22;39139;53.144;6.244;2023-10-19T07:38:16;8.80;99.90
51733;DHT22;39139;53.144;6.244;2023-10-19T07:40:42;8.70;99.90
51733;DHT22;39139;53.144;6.244;2023-10-19T07:43:09;8.80;99.90
51733;DHT22;39139;53.144;6.244;2023-10-19T07:45:35;8.80;99.90
51733;DHT22;39139;53.144;6.244;2023-10-19T07:48:03;8.90;99.90
51733;DHT22;39139;53.144;6.244;2023-10-19T07:50:38;8.90;99.90
51733;DHT22;39139;53.144;6.244;2023-10-19T07:53:06;8.90;99.90
51733;DHT22;39139;53.144;6.244;2023-10-19T07:55:32;8.90;99.90
51733;DHT22;39139;53.144;6.244;2023-10-19T07:57:58;8.90;99.90
51733;DHT22;39139;53.144;6.244;2023-10-19T08:00:28;8.90;99.90
51733;DHT22;39139;53.144;6.244;2023-10-19T08:02:59;8.90;99.90
51733;DHT22;39139;53.144;6.244;2023-10-19T08:05:25;8.90;99.90
51733;DHT22;39139;53.144;6.244;2023-10-19T08:07:51;9.00;99.90
51733;DHT22;39139;53.144;6.244;2023-10-19T08:10:19;8.90;99.90
51733;DHT22;39139;53.144;6.244;2023-10-19T08:12:46;8.90;99.90
51733;DHT22;39139;53.144;6.244;2023-10-19T08:15:13;8.90;99.90
51733;DHT22;39139;53.144;6.244;2023-10-19T08:17:45;8.90;99.90
51733;DHT22;39139;53.144;6.244;2023-10-19T08:20:13;8.90;99.90
51733;DHT22;39139;53.144;6.244;2023-10-19T08:22:45;9.00;99.90
51733;DHT22;39139;53.144;6.244;2023-10-19T08:25:12;8.90;99.90
51733;DHT22;39139;53.144;6.244;2023-10-19T08:27:41;9.00;99.90
51733;DHT22;39139;53.144;6.244;2023-10-19T08:30:13;9.00;99.90
51733;DHT22;39139;53.144;6.244;2023-10-19T08:32:40;8.90;99.90
51733;DHT22;39139;53.144;6.244;2023-10-19T08:35:07;9.10;99.90
51733;DHT22;39139;53.144;6.244;2023-10-19T08:37:34;9.00;99.90
51733;DHT22;39139;53.144;6.244;2023-10-19T08:40:00;9.10;99.90
51733;DHT22;39139;53.144;6.244;2023-10-19T08:42:26;9.00;99.90
51733;DHT22;39139;53.144;6.244;2023-10-19T08:44:51;9.10;99.90
51733;DHT22;39139;53.144;6.244;2023-10-19T08:47:17;9.10;99.90
51733;DHT22;39139;53.144;6.244;2023-10-19T08:49:43;9.00;99.90
51733;DHT22;39139;53.144;6.244;2023-10-19T08:52:09;9.10;99.90
51733;DHT22;39139;53.144;6.244;2023-10-19T08:54:34;9.10;99.90
51733;DHT22;39139;53.144;6.244;2023-10-19T08:57:00;9.20;99.90
51733;DHT22;39139;53.144;6.244;2023-10-19T08:59:26;9.20;99.90
51733;DHT22;39139;53.144;6.244;2023-10-19T09:02:02;9.20;99.90
51733;DHT22;39139;53.144;6.244;2023-10-19T09:04:29;9.20;99.90
51733;DHT22;39139;53.144;6.244;2023-10-19T09:06:55;9.20;99.90
51733;DHT22;39139;53.144;6.244;2023-10-19T09:09:21;9.30;99.90
51733;DHT22;39139;53.144;6.244;2023-10-19T09:11:51;9.20;99.90
51733;DHT22;39139;53.144;6.244;2023-10-19T09:14:32;9.30;99.90
51733;DHT22;39139;53.144;6.244;2023-10-19T09:17:09;9.30;99.90
51733;DHT22;39139;53.144;6.244;2023-10-19T09:19:45;9.30;99.90
51733;DHT22;39139;53.144;6.244;2023-10-19T09:22:13;9.30;99.90
51733;DHT22;39139;53.144;6.244;2023-10-19T09:24:48;9.30;99.90
51733;DHT22;39139;53.144;6.244;2023-10-19T09:27:17;9.30;99.90
51733;DHT22;39139;53.144;6.244;2023-10-19T09:29:43;9.30;99.90
51733;DHT22;39139;53.144;6.244;2023-10-19T09:32:09;9.50;99.90
51733;DHT22;39139;53.144;6.244;2023-10-19T09:34:35;9.40;99.90
51733;DHT22;39139;53.144;6.244;2023-10-19T09:37:03;9.40;99.90
51733;DHT22;39139;53.144;6.244;2023-10-19T09:39:32;9.40;99.90
51733;DHT22;39139;53.144;6.244;2023-10-19T09:42:08;9.40;99.90
51733;DHT22;39139;53.144;6.244;2023-10-19T09:47:34;9.50;99.90
51733;DHT22;39139;53.144;6.244;2023-10-19T09:49:57;9.50;99.90
51733;DHT22;39139;53.144;6.244;2023-10-19T09:52:23;9.50;99.90
51733;DHT22;39139;53.144;6.244;2023-10-19T09:55:22;9.50;99.90
51733;DHT22;39139;53.144;6.244;2023-10-19T09:57:55;9.50;99.90
51733;DHT22;39139;53.144;6.244;2023-10-19T10:00:22;9.50;99.90
51733;DHT22;39139;53.144;6.244;2023-10-19T10:02:51;9.50;99.90
51733;DHT22;39139;53.144;6.244;2023-10-19T10:10:42;9.60;99.90
51733;DHT22;39139;53.144;6.244;2023-10-19T10:13:37;9.60;99.90
51733;DHT22;39139;53.144;6.244;2023-10-19T10:16:03;9.60;99.90
51733;DHT22;39139;53.144;6.244;2023-10-19T10:18:34;9.60;99.90
51733;DHT22;39139;53.144;6.244;2023-10-19T10:21:08;9.60;99.90
51733;DHT22;39139;53.144;6.244;2023-10-19T10:23:58;9.70;99.90
51733;DHT22;39139;53.144;6.244;2023-10-19T10:26:31;9.60;99.90
51733;DHT22;39139;53.144;6.244;2023-10-19T10:29:23;8.90;99.90
51733;DHT22;39139;53.144;6.244;2023-10-19T10:31:54;9.60;99.90
51733;DHT22;39139;53.144;6.244;2023-10-19T10:34:42;9.70;99.90
51733;DHT22;39139;53.144;6.244;2023-10-19T10:37:12;9.70;99.90
51733;DHT22;39139;53.144;6.244;2023-10-19T10:39:39;9.70;99.90
51733;DHT22;39139;53.144;6.244;2023-10-19T10:42:08;9.80;99.90
51733;DHT22;39139;53.144;6.244;2023-10-19T10:44:45;9.80;99.90
51733;DHT22;39139;53.144;6.244;2023-10-19T10:47:18;9.80;99.90
51733;DHT22;39139;53.144;6.244;2023-10-19T10:49:54;9.80;99.90
51733;DHT22;39139;53.144;6.244;2023-10-19T10:52:34;9.80;99.90
51733;DHT22;39139;53.144;6.244;2023-10-19T10:55:13;9.90;99.90
51733;DHT22;39139;53.144;6.244;2023-10-19T10:57:40;10.00;99.90
51733;DHT22;39139;53.144;6.244;2023-10-19T11:00:11;9.90;99.90
51733;DHT22;39139;53.144;6.244;2023-10-19T11:03:00;10.00;99.90
51733;DHT22;39139;53.144;6.244;2023-10-19T11:05:26;10.00;99.90
51733;DHT22;39139;53.144;6.244;2023-10-19T11:08:09;10.00;99.90
51733;DHT22;39139;53.144;6.244;2023-10-19T11:10:39;10.00;99.90
51733;DHT22;39139;53.144;6.244;2023-10-19T11:13:09;10.00;99.90
51733;DHT22;39139;53.144;6.244;2023-10-19T11:15:39;10.00;99.90
51733;DHT22;39139;53.144;6.244;2023-10-19T11:18:08;10.10;99.90
51733;DHT22;39139;53.144;6.244;2023-10-19T11:20:34;10.00;99.90
51733;DHT22;39139;53.144;6.244;2023-10-19T11:22:59;10.10;99.90
51733;DHT22;39139;53.144;6.244;2023-10-19T11:25:29;10.10;99.90
51733;DHT22;39139;53.144;6.244;2023-10-19T11:27:57;10.10;99.90
51733;DHT22;39139;53.144;6.244;2023-10-19T11:30:28;10.00;99.90
51733;DHT22;39139;53.144;6.244;2023-10-19T11:32:55;10.10;99.90
51733;DHT22;39139;53.144;6.244;2023-10-19T11:35:30;10.10;99.90
51733;DHT22;39139;53.144;6.244;2023-10-19T11:38:00;10.00;99.90
51733;DHT22;39139;53.144;6.244;2023-10-19T11:40:27;10.20;99.90
51733;DHT22;39139;53.144;6.244;2023-10-19T11:42:54;10.10;99.90
51733;DHT22;39139;53.144;6.244;2023-10-19T11:45:24;10.10;99.90
51733;DHT22;39139;53.144;6.244;2023-10-19T11:47:50;10.10;99.90
51733;DHT22;39139;53.144;6.244;2023-10-19T11:50:16;10.20;99.90
51733;DHT22;39139;53.144;6.244;2023-10-19T11:52:44;10.20;99.90
51733;DHT22;39139;53.144;6.244;2023-10-19T11:55:11;10.10;99.90
51733;DHT22;39139;53.144;6.244;2023-10-19T11:57:39;10.20;99.90
51733;DHT22;39139;53.144;6.244;2023-10-19T12:00:06;10.30;99.90
51733;DHT22;39139;53.144;6.244;2023-10-19T12:02:37;10.40;99.90
51733;DHT22;39139;53.144;6.244;2023-10-19T12:05:05;10.40;99.90
51733;DHT22;39139;53.144;6.244;2023-10-19T12:07:38;10.50;99.90
51733;DHT22;39139;53.144;6.244;2023-10-19T12:10:07;10.50;99.90
51733;DHT22;39139;53.144;6.244;2023-10-19T12:12:36;10.60;99.90
51733;DHT22;39139;53.144;6.244;2023-10-19T12:15:04;10.60;99.90
51733;DHT22;39139;53.144;6.244;2023-10-19T12:17:31;10.60;99.90
51733;DHT22;39139;53.144;6.244;2023-10-19T12:19:57;10.60;99.90
51733;DHT22;39139;53.144;6.244;2023-10-19T12:22:23;10.50;99.90
51733;DHT22;39139;53.144;6.244;2023-10-19T12:24:50;10.50;99.90
51733;DHT22;39139;53.144;6.244;2023-10-19T12:27:17;10.40;99.90
51733;DHT22;39139;53.144;6.244;2023-10-19T12:29:43;10.30;99.90
51733;DHT22;39139;53.144;6.244;2023-10-19T12:32:09;10.30;99.90
51733;DHT22;39139;53.144;6.244;2023-10-19T12:34:35;10.30;99.90
51733;DHT22;39139;53.144;6.244;2023-10-19T12:37:00;10.30;99.90
51733;DHT22;39139;53.144;6.244;2023-10-19T12:39:27;10.30;99.90
51733;DHT22;39139;53.144;6.244;2023-10-19T12:42:10;10.20;99.90
51733;DHT22;39139;53.144;6.244;2023-10-19T12:44:36;10.30;99.90
51733;DHT22;39139;53.144;6.244;2023-10-19T12:47:05;10.30;99.90
51733;DHT22;39139;53.144;6.244;2023-10-19T12:49:42;10.20;99.90
51733;DHT22;39139;53.144;6.244;2023-10-19T12:52:10;10.30;99.90
51733;DHT22;39139;53.144;6.244;2023-10-19T12:54:36;10.20;99.90
51733;DHT22;39139;53.144;6.244;2023-10-19T12:57:03;10.20;99.90
51733;DHT22;39139;53.144;6.244;2023-10-19T12:59:36;10.10;99.90
51733;DHT22;39139;53.144;6.244;2023-10-19T13:02:05;10.40;99.90
51733;DHT22;39139;53.144;6.244;2023-10-19T13:04:34;10.20;99.90
51733;DHT22;39139;53.144;6.244;2023-10-19T13:06:59;10.20;99.90
51733;DHT22;39139;53.144;6.244;2023-10-19T13:09:26;10.20;99.90
51733;DHT22;39139;53.144;6.244;2023-10-19T13:11:59;10.20;99.90
51733;DHT22;39139;53.144;6.244;2023-10-19T13:14:25;10.20;99.90
51733;DHT22;39139;53.144;6.244;2023-10-19T13:16:52;10.20;99.90
51733;DHT22;39139;53.144;6.244;2023-10-19T13:19:20;10.10;99.90
51733;DHT22;39139;53.144;6.244;2023-10-19T13:21:50;10.20;99.90
51733;DHT22;39139;53.144;6.244;2023-10-19T13:24:16;10.10;99.90
51733;DHT22;39139;53.144;6.244;2023-10-19T13:26:43;10.00;99.90
51733;DHT22;39139;53.144;6.244;2023-10-19T13:29:12;10.20;99.90
51733;DHT22;39139;53.144;6.244;2023-10-19T13:31:38;10.00;99.90
51733;DHT22;39139;53.144;6.244;2023-10-19T13:34:03;10.10;99.90
51733;DHT22;39139;53.144;6.244;2023-10-19T13:36:36;10.00;99.90
51733;DHT22;39139;53.144;6.244;2023-10-19T13:39:02;10.00;99.90
51733;DHT22;39139;53.144;6.244;2023-10-19T13:41:29;10.00;99.90
51733;DHT22;39139;53.144;6.244;2023-10-19T13:43:54;9.90;99.90
51733;DHT22;39139;53.144;6.244;2023-10-19T13:46:21;10.10;99.90
51733;DHT22;39139;53.144;6.244;2023-10-19T13:48:49;10.00;99.90
51733;DHT22;39139;53.144;6.244;2023-10-19T13:51:16;9.90;99.90
51733;DHT22;39139;53.144;6.244;2023-10-19T13:53:44;10.10;99.90
51733;DHT22;39139;53.144;6.244;2023-10-19T13:56:15;10.00;99.90
51733;DHT22;39139;53.144;6.244;2023-10-19T13:58:41;10.00;99.90
51733;DHT22;39139;53.144;6.244;2023-10-19T14:01:08;10.00;99.90
51733;DHT22;39139;53.144;6.244;2023-10-19T14:03:34;9.90;99.90
51733;DHT22;39139;53.144;6.244;2023-10-19T14:06:00;10.00;99.90
51733;DHT22;39139;53.144;6.244;2023-10-19T14:08:26;9.90;99.90
51733;DHT22;39139;53.144;6.244;2023-10-19T14:10:51;9.80;99.90
51733;DHT22;39139;53.144;6.244;2023-10-19T14:13:17;9.90;99.90
51733;DHT22;39139;53.144;6.244;2023-10-19T14:15:43;10.10;99.90
51733;DHT22;39139;53.144;6.244;2023-10-19T14:18:09;9.80;99.90
51733;DHT22;39139;53.144;6.244;2023-10-19T14:20:35;9.80;99.90
51733;DHT22;39139;53.144;6.244;2023-10-19T14:23:04;9.80;99.90
51733;DHT22;39139;53.144;6.244;2023-10-19T14:25:31;9.80;99.90
51733;DHT22;39139;53.144;6.244;2023-10-19T14:27:57;9.80;99.90
51733;DHT22;39139;53.144;6.244;2023-10-19T14:30:27;9.80;99.90
51733;DHT22;39139;53.144;6.244;2023-10-19T14:32:57;9.80;99.90
51733;DHT22;39139;53.144;6.244;2023-10-19T14:35:23;9.80;99.90
51733;DHT22;39139;53.144;6.244;2023-10-19T14:37:52;9.80;99.90
51733;DHT22;39139;53.144;6.244;2023-10-19T14:40:24;9.70;99.90
51733;DHT22;39139;53.144;6.244;2023-10-19T14:42:51;9.70;99.90
51733;DHT22;39139;53.144;6.244;2023-10-19T14:45:21;9.70;99.90
51733;DHT22;39139;53.144;6.244;2023-10-19T14:47:51;9.70;99.90
51733;DHT22;39139;53.144;6.244;2023-10-19T14:50:17;9.70;99.90
51733;DHT22;39139;53.144;6.244;2023-10-19T14:52:45;9.70;99.90
51733;DHT22;39139;53.144;6.244;2023-10-19T14:55:13;9.70;99.90
51733;DHT22;39139;53.144;6.244;2023-10-19T14:57:41;10.00;99.90
51733;DHT22;39139;53.144;6.244;2023-10-19T15:00:09;9.70;99.90
51733;DHT22;39139;53.144;6.244;2023-10-19T15:02:56;9.70;99.90
51733;DHT22;39139;53.144;6.244;2023-10-19T15:05:27;9.70;99.90
51733;DHT22;39139;53.144;6.244;2023-10-19T15:07:54;9.60;99.90
51733;DHT22;39139;53.144;6.244;2023-10-19T15:10:25;9.90;99.90
51733;DHT22;39139;53.144;6.244;2023-10-19T15:12:52;9.60;99.90
51733;DHT22;39139;53.144;6.244;2023-10-19T15:15:18;9.60;99.90
51733;DHT22;39139;53.144;6.244;2023-10-19T15:17:44;9.60;99.90
51733;DHT22;39139;53.144;6.244;2023-10-19T15:20:12;9.60;99.90
51733;DHT22;39139;53.144;6.244;2023-10-19T15:22:43;9.60;99.90
51733;DHT22;39139;53.144;6.244;2023-10-19T15:25:09;9.80;99.90
51733;DHT22;39139;53.144;6.244;2023-10-19T15:27:37;9.60;99.90
51733;DHT22;39139;53.144;6.244;2023-10-19T15:30:06;9.60;99.90
51733;DHT22;39139;53.144;6.244;2023-10-19T15:32:32;9.60;99.90
51733;DHT22;39139;53.144;6.244;2023-10-19T15:34:58;9.60;99.90
51733;DHT22;39139;53.144;6.244;2023-10-19T15:37:24;9.60;99.90
51733;DHT22;39139;53.144;6.244;2023-10-19T15:39:50;9.60;99.90
51733;DHT22;39139;53.144;6.244;2023-10-19T15:42:17;9.80;99.90
51733;DHT22;39139;53.144;6.244;2023-10-19T15:44:44;9.50;99.90
51733;DHT22;39139;53.144;6.244;2023-10-19T15:47:11;9.50;99.90
51733;DHT22;39139;53.144;6.244;2023-10-19T15:49:46;9.60;99.90
51733;DHT22;39139;53.144;6.244;2023-10-19T15:52:13;9.60;99.90
51733;DHT22;39139;53.144;6.244;2023-10-19T15:54:39;9.50;99.90
51733;DHT22;39139;53.144;6.244;2023-10-19T15:57:04;9.50;99.90
51733;DHT22;39139;53.144;6.244;2023-10-19T15:59:31;9.60;99.90
51733;DHT22;39139;53.144;6.244;2023-10-19T16:01:56;9.60;99.90
51733;DHT22;39139;53.144;6.244;2023-10-19T16:04:23;9.60;99.90
51733;DHT22;39139;53.144;6.244;2023-10-19T16:06:49;9.60;99.90
51733;DHT22;39139;53.144;6.244;2023-10-19T16:09:15;9.60;99.90